PRIVATE WETTERSTATION BILLIGHEIM-ALLFELD                       ZURCK
Wetterdaten: Freitag, 13.06.2014
Datum Zeit Temp. A. Temp. A. min Temp. A. max Feuchte A. Luftdruck Regen Wind Richtung Richtung Sonnenschein ET Solar Taupunkt Windchill Windben Empfang
13.06.2014 00:00 18,1 C 18,1 C 18,3 C 72 % 1021,1 hPa 0,0 l/m 0,0 km/h (0 Bft) N 0 0 min 0,025 mm 0 W/m 13,0 C 18,1 C 0,0 km/h (0 Bft) 100 %
13.06.2014 00:10 17,8 C 17,8 C 18,1 C 72 % 1021,0 hPa 0,0 l/m 0,0 km/h (0 Bft) N 0 0 min 0,000 mm 0 W/m 12,7 C 17,8 C 0,0 km/h (0 Bft) 100 %
13.06.2014 00:20 17,4 C 17,4 C 17,7 C 73 % 1020,9 hPa 0,0 l/m 0,0 km/h (0 Bft) N-NW 337 0 min 0,000 mm 0 W/m 12,5 C 17,4 C 1,6 km/h (1 Bft) 100 %
13.06.2014 00:30 17,2 C 17,2 C 17,4 C 74 % 1020,9 hPa 0,0 l/m 0,0 km/h (0 Bft) N 0 0 min 0,000 mm 0 W/m 12,5 C 17,2 C 0,0 km/h (0 Bft) 100 %
13.06.2014 00:40 16,9 C 16,9 C 17,2 C 74 % 1020,9 hPa 0,0 l/m 0,0 km/h (0 Bft) N 0 0 min 0,000 mm 0 W/m 12,2 C 16,9 C 0,0 km/h (0 Bft) 100 %
13.06.2014 00:50 16,7 C 16,7 C 16,9 C 75 % 1020,9 hPa 0,0 l/m 0,0 km/h (0 Bft) N 0 0 min 0,000 mm 0 W/m 12,2 C 16,7 C 0,0 km/h (0 Bft) 100 %
13.06.2014 01:00 16,6 C 16,6 C 16,7 C 76 % 1020,9 hPa 0,0 l/m 0,0 km/h (0 Bft) N 0 0 min 0,025 mm 0 W/m 12,3 C 16,6 C 0,0 km/h (0 Bft) 100 %
13.06.2014 01:10 16,5 C 16,5 C 16,6 C 76 % 1020,9 hPa 0,0 l/m 0,0 km/h (0 Bft) N 0 0 min 0,000 mm 0 W/m 12,3 C 16,5 C 0,0 km/h (0 Bft) 100 %
13.06.2014 01:20 16,4 C 16,4 C 16,5 C 77 % 1021,0 hPa 0,0 l/m 0,0 km/h (0 Bft) N 0 0 min 0,000 mm 0 W/m 12,4 C 16,4 C 0,0 km/h (0 Bft) 100 %
13.06.2014 01:30 16,3 C 16,3 C 16,4 C 77 % 1021,1 hPa 0,0 l/m 0,0 km/h (0 Bft) N 0 0 min 0,000 mm 0 W/m 12,3 C 16,3 C 0,0 km/h (0 Bft) 100 %
13.06.2014 01:40 16,2 C 16,2 C 16,3 C 77 % 1021,1 hPa 0,0 l/m 0,0 km/h (0 Bft) N 0 0 min 0,000 mm 0 W/m 12,2 C 16,2 C 0,0 km/h (0 Bft) 100 %
13.06.2014 01:50 15,9 C 15,9 C 16,2 C 77 % 1020,9 hPa 0,0 l/m 0,0 km/h (0 Bft) N 0 0 min 0,000 mm 0 W/m 11,9 C 15,9 C 0,0 km/h (0 Bft) 100 %
13.06.2014 02:00 15,8 C 15,8 C 15,9 C 77 % 1020,8 hPa 0,0 l/m 0,0 km/h (0 Bft) N 0 0 min 0,025 mm 0 W/m 11,8 C 15,8 C 0,0 km/h (0 Bft) 100 %
13.06.2014 02:10 15,6 C 15,6 C 15,8 C 77 % 1020,6 hPa 0,0 l/m 0,0 km/h (0 Bft) N-NW 337 0 min 0,000 mm 0 W/m 11,6 C 15,6 C 1,6 km/h (1 Bft) 100 %
13.06.2014 02:20 15,4 C 15,4 C 15,6 C 77 % 1020,6 hPa 0,0 l/m 0,0 km/h (0 Bft) N-NW 337 0 min 0,000 mm 0 W/m 11,4 C 15,4 C 1,6 km/h (1 Bft) 100 %
13.06.2014 02:30 15,3 C 15,3 C 15,4 C 78 % 1020,6 hPa 0,0 l/m 0,0 km/h (0 Bft) N-NW 337 0 min 0,000 mm 0 W/m 11,5 C 15,3 C 1,6 km/h (1 Bft) 100 %
13.06.2014 02:40 15,1 C 15,1 C 15,3 C 78 % 1020,5 hPa 0,0 l/m 0,0 km/h (0 Bft) N 0 0 min 0,000 mm 0 W/m 11,3 C 15,1 C 0,0 km/h (0 Bft) 100 %
13.06.2014 02:50 14,9 C 14,9 C 15,1 C 79 % 1020,5 hPa 0,0 l/m 0,0 km/h (0 Bft) N-NW 337 0 min 0,000 mm 0 W/m 11,3 C 14,9 C 1,6 km/h (1 Bft) 100 %
13.06.2014 03:00 14,8 C 14,8 C 14,9 C 79 % 1020,5 hPa 0,0 l/m 0,0 km/h (0 Bft) N-NW 337 0 min 0,025 mm 0 W/m 11,2 C 14,8 C 3,2 km/h (1 Bft) 100 %
13.06.2014 03:10 14,6 C 14,6 C 14,8 C 80 % 1020,4 hPa 0,0 l/m 0,0 km/h (0 Bft) N-NW 337 0 min 0,000 mm 0 W/m 11,2 C 14,6 C 3,2 km/h (1 Bft) 100 %
13.06.2014 03:20 14,4 C 14,4 C 14,6 C 80 % 1020,4 hPa 0,0 l/m 0,0 km/h (0 Bft) N-NW 337 0 min 0,000 mm 0 W/m 11,0 C 14,4 C 1,6 km/h (1 Bft) 100 %
13.06.2014 03:30 14,2 C 14,2 C 14,4 C 81 % 1020,3 hPa 0,0 l/m 0,0 km/h (0 Bft) N-NW 337 0 min 0,000 mm 0 W/m 11,0 C 14,2 C 1,6 km/h (1 Bft) 100 %
13.06.2014 03:40 13,9 C 13,9 C 14,2 C 82 % 1020,2 hPa 0,0 l/m 0,0 km/h (0 Bft) N-NW 337 0 min 0,000 mm 0 W/m 10,9 C 13,9 C 1,6 km/h (1 Bft) 100 %
13.06.2014 03:50 13,7 C 13,7 C 13,9 C 82 % 1020,1 hPa 0,0 l/m 0,0 km/h (0 Bft) N 0 0 min 0,000 mm 0 W/m 10,7 C 13,7 C 0,0 km/h (0 Bft) 100 %
13.06.2014 04:00 13,5 C 13,5 C 13,7 C 83 % 1020,1 hPa 0,0 l/m 0,0 km/h (0 Bft) N 0 0 min 0,025 mm 0 W/m 10,7 C 13,5 C 0,0 km/h (0 Bft) 100 %
13.06.2014 04:10 13,3 C 13,3 C 13,5 C 83 % 1020,1 hPa 0,0 l/m 0,0 km/h (0 Bft) N 0 0 min 0,000 mm 0 W/m 10,5 C 13,3 C 0,0 km/h (0 Bft) 100 %
13.06.2014 04:20 13,1 C 13,1 C 13,3 C 84 % 1020,1 hPa 0,0 l/m 0,0 km/h (0 Bft) N-NW 337 0 min 0,000 mm 0 W/m 10,5 C 13,1 C 1,6 km/h (1 Bft) 100 %
13.06.2014 04:30 12,8 C 12,8 C 13,1 C 84 % 1020,0 hPa 0,0 l/m 0,0 km/h (0 Bft) N-NW 337 0 min 0,000 mm 0 W/m 10,2 C 12,8 C 1,6 km/h (1 Bft) 100 %
13.06.2014 04:40 12,6 C 12,6 C 12,8 C 85 % 1020,1 hPa 0,0 l/m 0,0 km/h (0 Bft) N-NW 337 0 min 0,000 mm 0 W/m 10,1 C 12,6 C 1,6 km/h (1 Bft) 100 %
13.06.2014 04:50 12,4 C 12,4 C 12,6 C 85 % 1019,9 hPa 0,0 l/m 0,0 km/h (0 Bft) N-NW 337 0 min 0,000 mm 0 W/m 9,9 C 12,4 C 1,6 km/h (1 Bft) 100 %
13.06.2014 05:00 12,2 C 12,2 C 12,4 C 85 % 1019,8 hPa 0,0 l/m 0,0 km/h (0 Bft) N 0 0 min 0,000 mm 0 W/m 9,8 C 12,2 C 0,0 km/h (0 Bft) 100 %
13.06.2014 05:10 12,1 C 12,1 C 12,2 C 86 % 1019,8 hPa 0,0 l/m 0,0 km/h (0 Bft) N-NW 337 0 min 0,000 mm 0 W/m 9,8 C 12,1 C 1,6 km/h (1 Bft) 100 %
13.06.2014 05:20 11,9 C 11,9 C 12,1 C 86 % 1019,9 hPa 0,0 l/m 0,0 km/h (0 Bft) N-NW 337 0 min 0,000 mm 0 W/m 9,6 C 11,9 C 1,6 km/h (1 Bft) 100 %
13.06.2014 05:30 11,8 C 11,8 C 11,9 C 86 % 1019,8 hPa 0,0 l/m 0,0 km/h (0 Bft) N 0 0 min 0,000 mm 5 W/m 9,5 C 11,8 C 0,0 km/h (0 Bft) 100 %
13.06.2014 05:40 11,7 C 11,7 C 11,8 C 86 % 1019,8 hPa 0,0 l/m 0,0 km/h (0 Bft) N 0 0 min 0,000 mm 9 W/m 9,4 C 11,7 C 0,0 km/h (0 Bft) 100 %
13.06.2014 05:50 11,7 C 11,7 C 11,7 C 86 % 1019,8 hPa 0,0 l/m 0,0 km/h (0 Bft) N 0 0 min 0,000 mm 12 W/m 9,4 C 11,7 C 0,0 km/h (0 Bft) 100 %
13.06.2014 06:00 11,7 C 11,7 C 11,7 C 86 % 1019,8 hPa 0,0 l/m 0,0 km/h (0 Bft) N 0 0 min 0,000 mm 14 W/m 9,4 C 11,7 C 0,0 km/h (0 Bft) 100 %
13.06.2014 06:10 11,7 C 11,6 C 11,7 C 86 % 1019,7 hPa 0,0 l/m 0,0 km/h (0 Bft) SW 225 0 min 0,000 mm 16 W/m 9,4 C 11,7 C 1,6 km/h (1 Bft) 100 %
13.06.2014 06:20 11,7 C 11,7 C 11,7 C 86 % 1019,8 hPa 0,0 l/m 0,0 km/h (0 Bft) SW 225 0 min 0,000 mm 18 W/m 9,4 C 11,7 C 1,6 km/h (1 Bft) 100 %
13.06.2014 06:30 11,8 C 11,7 C 11,8 C 87 % 1019,8 hPa 0,0 l/m 0,0 km/h (0 Bft) SW 225 0 min 0,000 mm 19 W/m 9,7 C 11,8 C 1,6 km/h (1 Bft) 100 %
13.06.2014 06:40 11,9 C 11,8 C 12,0 C 87 % 1019,7 hPa 0,0 l/m 0,0 km/h (0 Bft) SW 225 0 min 0,000 mm 23 W/m 9,8 C 11,9 C 3,2 km/h (1 Bft) 100 %
13.06.2014 06:50 12,2 C 12,0 C 12,2 C 86 % 1019,7 hPa 0,0 l/m 0,0 km/h (0 Bft) SW 225 0 min 0,000 mm 25 W/m 9,9 C 12,2 C 3,2 km/h (1 Bft) 100 %
13.06.2014 07:00 12,3 C 12,2 C 12,3 C 87 % 1019,7 hPa 0,0 l/m 0,0 km/h (0 Bft) SW 225 0 min 0,000 mm 30 W/m 10,2 C 12,3 C 1,6 km/h (1 Bft) 100 %
13.06.2014 07:10 12,4 C 12,3 C 12,4 C 86 % 1019,6 hPa 0,0 l/m 0,0 km/h (0 Bft) W-SW 247 0 min 0,000 mm 33 W/m 10,1 C 12,4 C 1,6 km/h (1 Bft) 100 %
13.06.2014 07:20 12,7 C 12,4 C 12,7 C 87 % 1019,7 hPa 0,0 l/m 0,0 km/h (0 Bft) W-SW 247 0 min 0,000 mm 35 W/m 10,6 C 12,7 C 3,2 km/h (1 Bft) 86 %
13.06.2014 07:30 13,0 C 12,7 C 13,0 C 86 % 1019,6 hPa 0,0 l/m 0,0 km/h (0 Bft) W-SW 247 0 min 0,000 mm 33 W/m 10,7 C 13,0 C 3,2 km/h (1 Bft) 100 %
13.06.2014 07:40 13,2 C 13,0 C 13,2 C 86 % 1019,6 hPa 0,0 l/m 0,0 km/h (0 Bft) W-SW 247 0 min 0,000 mm 37 W/m 10,9 C 13,2 C 3,2 km/h (1 Bft) 100 %
13.06.2014 07:50 13,4 C 13,2 C 13,4 C 86 % 1019,6 hPa 0,0 l/m 0,0 km/h (0 Bft) W 270 0 min 0,000 mm 39 W/m 11,1 C 13,4 C 3,2 km/h (1 Bft) 100 %
13.06.2014 08:00 13,8 C 13,4 C 13,8 C 86 % 1019,7 hPa 0,0 l/m 0,0 km/h (0 Bft) W 270 0 min 0,025 mm 47 W/m 11,5 C 13,8 C 1,6 km/h (1 Bft) 100 %
13.06.2014 08:10 14,2 C 13,8 C 14,2 C 85 % 1019,6 hPa 0,0 l/m 0,0 km/h (0 Bft) SW 225 0 min 0,000 mm 77 W/m 11,7 C 14,2 C 1,6 km/h (1 Bft) 100 %
13.06.2014 08:20 14,8 C 14,2 C 14,8 C 84 % 1019,5 hPa 0,0 l/m 0,0 km/h (0 Bft) SW 225 10 min 0,000 mm 376 W/m 12,1 C 14,8 C 8,0 km/h (2 Bft) 100 %
13.06.2014 08:30 15,7 C 14,8 C 15,7 C 80 % 1019,5 hPa 0,0 l/m 0,0 km/h (0 Bft) NW 315 10 min 0,000 mm 394 W/m 12,3 C 15,7 C 3,2 km/h (1 Bft) 95 %
13.06.2014 08:40 16,9 C 15,8 C 16,9 C 76 % 1019,5 hPa 0,0 l/m 0,0 km/h (0 Bft) W-NW 292 10 min 0,000 mm 438 W/m 12,6 C 16,9 C 3,2 km/h (1 Bft) 100 %
13.06.2014 08:50 17,8 C 15,8 C 17,8 C 74 % 1019,6 hPa 0,0 l/m 0,0 km/h (0 Bft) S-SW 199 10 min 0,000 mm 432 W/m 13,1 C 17,8 C 1,6 km/h (1 Bft) 98 %
13.06.2014 09:00 18,6 C 17,8 C 18,6 C 71 % 1019,7 hPa 0,0 l/m 0,1 km/h (0 Bft) S-SW 200 10 min 0,000 mm 499 W/m 13,2 C 18,6 C 1,6 km/h (1 Bft) 100 %
13.06.2014 09:10 19,3 C 18,6 C 19,3 C 70 % 1019,7 hPa 0,0 l/m 0,2 km/h (0 Bft) S-SW 198 10 min 0,155 mm 522 W/m 13,7 C 19,3 C 4,8 km/h (1 Bft) 100 %
13.06.2014 09:20 19,8 C 19,3 C 19,8 C 66 % 1019,6 hPa 0,0 l/m 0,2 km/h (0 Bft) W 281 10 min 0,000 mm 533 W/m 13,3 C 19,8 C 4,8 km/h (1 Bft) 100 %
13.06.2014 09:30 20,3 C 19,8 C 20,3 C 64 % 1019,7 hPa 0,0 l/m 0,1 km/h (0 Bft) W 280 10 min 0,000 mm 570 W/m 13,3 C 20,3 C 1,6 km/h (1 Bft) 100 %
13.06.2014 09:40 20,4 C 20,3 C 20,4 C 65 % 1019,8 hPa 0,0 l/m 0,1 km/h (0 Bft) S 188 10 min 0,000 mm 541 W/m 13,6 C 20,4 C 3,2 km/h (1 Bft) 100 %
13.06.2014 09:50 20,8 C 20,4 C 20,8 C 64 % 1019,7 hPa 0,0 l/m 0,7 km/h (0 Bft) NW 308 10 min 0,000 mm 617 W/m 13,7 C 20,8 C 6,4 km/h (2 Bft) 99 %
13.06.2014 10:00 21,2 C 20,8 C 21,2 C 62 % 1019,7 hPa 0,0 l/m 0,1 km/h (0 Bft) W 268 10 min 0,330 mm 638 W/m 13,6 C 21,2 C 3,2 km/h (1 Bft) 100 %
13.06.2014 10:10 21,6 C 21,2 C 21,6 C 62 % 1019,6 hPa 0,0 l/m 0,2 km/h (0 Bft) NW 320 10 min 0,000 mm 659 W/m 14,0 C 21,6 C 3,2 km/h (1 Bft) 98 %
13.06.2014 10:20 21,9 C 21,6 C 21,9 C 60 % 1019,5 hPa 0,0 l/m 0,6 km/h (0 Bft) NW 320 10 min 0,000 mm 680 W/m 13,8 C 21,9 C 4,8 km/h (1 Bft) 97 %
13.06.2014 10:30 22,2 C 21,9 C 22,2 C 58 % 1019,5 hPa 0,0 l/m 2,9 km/h (1 Bft) NW 318 10 min 0,000 mm 696 W/m 13,5 C 22,2 C 11,3 km/h (2 Bft) 98 %
13.06.2014 10:40 22,2 C 22,1 C 22,2 C 59 % 1019,3 hPa 0,0 l/m 2,4 km/h (1 Bft) NW 319 10 min 0,000 mm 705 W/m 13,8 C 22,2 C 9,7 km/h (2 Bft) 97 %
13.06.2014 10:50 22,3 C 22,2 C 22,3 C 55 % 1019,3 hPa 0,0 l/m 2,7 km/h (1 Bft) N-NW 327 10 min 0,000 mm 735 W/m 12,8 C 22,3 C 11,3 km/h (2 Bft) 98 %
13.06.2014 11:00 22,6 C 22,3 C 22,6 C 57 % 1019,3 hPa 0,0 l/m 2,9 km/h (1 Bft) O-SO 119 10 min 0,432 mm 766 W/m 13,6 C 22,6 C 14,5 km/h (3 Bft) 97 %
13.06.2014 11:10 22,9 C 22,6 C 22,9 C 55 % 1019,3 hPa 0,0 l/m 0,8 km/h (0 Bft) N-NW 335 10 min 0,000 mm 779 W/m 13,4 C 22,9 C 8,0 km/h (2 Bft) 97 %
13.06.2014 11:20 23,1 C 22,9 C 23,1 C 54 % 1019,2 hPa 0,0 l/m 1,4 km/h (1 Bft) N 11 10 min 0,000 mm 858 W/m 13,3 C 23,1 C 9,7 km/h (2 Bft) 98 %
13.06.2014 11:30 23,2 C 23,1 C 23,2 C 55 % 1019,3 hPa 0,0 l/m 3,4 km/h (1 Bft) NW 323 10 min 0,000 mm 777 W/m 13,6 C 23,2 C 11,3 km/h (2 Bft) 97 %
13.06.2014 11:40 23,2 C 23,2 C 23,2 C 53 % 1019,2 hPa 0,0 l/m 2,8 km/h (1 Bft) N-NW 332 10 min 0,000 mm 868 W/m 13,1 C 23,2 C 11,3 km/h (2 Bft) 98 %
13.06.2014 11:50 23,3 C 23,1 C 23,3 C 54 % 1019,1 hPa 0,0 l/m 0,6 km/h (0 Bft) N 10 10 min 0,000 mm 891 W/m 13,5 C 23,3 C 8,0 km/h (2 Bft) 98 %
13.06.2014 12:00 23,8 C 23,3 C 23,8 C 51 % 1018,9 hPa 0,0 l/m 1,5 km/h (1 Bft) SO 144 10 min 0,457 mm 893 W/m 13,0 C 23,8 C 6,4 km/h (2 Bft) 98 %
13.06.2014 12:10 24,1 C 23,8 C 24,1 C 51 % 1018,9 hPa 0,0 l/m 2,0 km/h (1 Bft) N-NW 342 10 min 0,000 mm 918 W/m 13,3 C 24,1 C 11,3 km/h (2 Bft) 97 %
13.06.2014 12:20 24,0 C 23,9 C 24,2 C 53 % 1018,8 hPa 0,0 l/m 1,2 km/h (1 Bft) N-NW 346 10 min 0,000 mm 960 W/m 13,8 C 24,0 C 9,7 km/h (2 Bft) 98 %
13.06.2014 12:30 24,4 C 24,0 C 24,4 C 50 % 1018,7 hPa 0,0 l/m 4,6 km/h (1 Bft) NW 304 10 min 0,000 mm 1032 W/m 13,3 C 24,4 C 11,3 km/h (2 Bft) 97 %
13.06.2014 12:40 24,4 C 24,4 C 24,4 C 50 % 1018,8 hPa 0,0 l/m 4,4 km/h (1 Bft) W 270 10 min 0,000 mm 967 W/m 13,3 C 24,4 C 14,5 km/h (3 Bft) 97 %
13.06.2014 12:50 24,8 C 24,4 C 24,8 C 48 % 1018,6 hPa 0,0 l/m 3,7 km/h (1 Bft) NW 304 10 min 0,000 mm 976 W/m 13,0 C 24,8 C 16,1 km/h (3 Bft) 98 %
13.06.2014 13:00 25,2 C 24,8 C 25,2 C 48 % 1018,4 hPa 0,0 l/m 4,8 km/h (1 Bft) W 279 10 min 0,559 mm 1007 W/m 13,4 C 25,2 C 16,1 km/h (3 Bft) 97 %
13.06.2014 13:10 25,5 C 25,2 C 25,5 C 48 % 1018,5 hPa 0,0 l/m 5,4 km/h (1 Bft) NW 306 10 min 0,000 mm 1030 W/m 13,7 C 25,5 C 19,3 km/h (3 Bft) 98 %
13.06.2014 13:20 25,6 C 25,5 C 25,6 C 45 % 1018,3 hPa 0,0 l/m 1,0 km/h (0 Bft) N-NW 333 10 min 0,000 mm 951 W/m 12,8 C 25,6 C 9,7 km/h (2 Bft) 97 %
13.06.2014 13:30 25,7 C 25,6 C 25,7 C 44 % 1018,3 hPa 0,0 l/m 6,1 km/h (2 Bft) NO 35 10 min 0,000 mm 986 W/m 12,5 C 25,7 C 17,7 km/h (3 Bft) 97 %
13.06.2014 13:40 25,8 C 25,7 C 25,8 C 46 % 1018,0 hPa 0,0 l/m 4,7 km/h (1 Bft) NW 316 10 min 0,000 mm 930 W/m 13,3 C 25,8 C 20,9 km/h (4 Bft) 98 %
13.06.2014 13:50 25,8 C 25,7 C 25,8 C 42 % 1018,0 hPa 0,0 l/m 4,3 km/h (1 Bft) NW 321 10 min 0,000 mm 914 W/m 11,9 C 25,8 C 17,7 km/h (3 Bft) 97 %
13.06.2014 14:00 25,4 C 25,4 C 25,8 C 44 % 1017,9 hPa 0,0 l/m 4,3 km/h (1 Bft) NW 312 10 min 0,609 mm 983 W/m 12,2 C 25,4 C 14,5 km/h (3 Bft) 98 %
13.06.2014 14:10 25,4 C 25,3 C 25,4 C 45 % 1017,8 hPa 0,0 l/m 4,1 km/h (1 Bft) NW 321 10 min 0,000 mm 1032 W/m 12,6 C 25,4 C 17,7 km/h (3 Bft) 98 %
13.06.2014 14:20 25,9 C 25,4 C 25,9 C 42 % 1017,8 hPa 0,0 l/m 6,9 km/h (2 Bft) W 273 10 min 0,000 mm 928 W/m 12,0 C 25,8 C 19,3 km/h (3 Bft) 99 %
13.06.2014 14:30 25,9 C 25,9 C 25,9 C 42 % 1017,7 hPa 0,0 l/m 3,3 km/h (1 Bft) W-SW 248 10 min 0,000 mm 1018 W/m 12,0 C 25,9 C 11,3 km/h (2 Bft) 100 %
13.06.2014 14:40 25,9 C 25,9 C 25,9 C 44 % 1017,8 hPa 0,0 l/m 0,6 km/h (0 Bft) N-NW 329 10 min 0,000 mm 947 W/m 12,7 C 25,9 C 4,8 km/h (1 Bft) 100 %
13.06.2014 14:50 25,6 C 25,6 C 26,0 C 43 % 1017,5 hPa 0,0 l/m 1,2 km/h (1 Bft) N-NW 348 10 min 0,000 mm 870 W/m 12,1 C 25,6 C 9,7 km/h (2 Bft) 100 %
13.06.2014 15:00 26,0 C 25,6 C 26,0 C 45 % 1017,4 hPa 0,0 l/m 3,3 km/h (1 Bft) NW 315 10 min 0,585 mm 874 W/m 13,1 C 26,0 C 16,1 km/h (3 Bft) 100 %
13.06.2014 15:10 26,3 C 26,0 C 26,3 C 37 % 1017,3 hPa 0,0 l/m 4,7 km/h (1 Bft) NW 321 10 min 0,000 mm 830 W/m 10,4 C 26,3 C 19,3 km/h (3 Bft) 100 %
13.06.2014 15:20 26,6 C 26,3 C 26,6 C 36 % 1017,2 hPa 0,0 l/m 6,6 km/h (2 Bft) W-NW 298 10 min 0,000 mm 803 W/m 10,3 C 26,6 C 19,3 km/h (3 Bft) 100 %
13.06.2014 15:30 26,7 C 26,6 C 26,7 C 37 % 1017,1 hPa 0,0 l/m 9,7 km/h (2 Bft) NW 310 10 min 0,000 mm 742 W/m 10,8 C 26,1 C 22,5 km/h (4 Bft) 100 %
13.06.2014 15:40 26,8 C 26,7 C 26,8 C 36 % 1017,2 hPa 0,0 l/m 8,4 km/h (2 Bft) NW 316 10 min 0,000 mm 749 W/m 10,5 C 26,4 C 20,9 km/h (4 Bft) 99 %
13.06.2014 15:50 26,8 C 26,8 C 26,9 C 38 % 1017,1 hPa 0,0 l/m 3,5 km/h (1 Bft) NW 311 10 min 0,000 mm 738 W/m 11,3 C 26,8 C 16,1 km/h (3 Bft) 100 %
13.06.2014 16:00 26,8 C 26,7 C 26,8 C 37 % 1017,0 hPa 0,0 l/m 8,4 km/h (2 Bft) W 281 10 min 0,558 mm 629 W/m 10,9 C 26,4 C 25,7 km/h (4 Bft) 100 %
13.06.2014 16:10 26,0 C 26,0 C 26,8 C 39 % 1017,0 hPa 0,0 l/m 7,2 km/h (2 Bft) W-NW 299 10 min 0,000 mm 297 W/m 11,0 C 25,8 C 25,7 km/h (4 Bft) 100 %
13.06.2014 16:20 25,2 C 25,2 C 26,0 C 41 % 1017,0 hPa 0,0 l/m 5,9 km/h (2 Bft) NW 316 10 min 0,000 mm 339 W/m 11,0 C 25,2 C 17,7 km/h (3 Bft) 100 %
13.06.2014 16:30 24,9 C 24,8 C 25,2 C 43 % 1016,9 hPa 0,0 l/m 4,0 km/h (1 Bft) NW 315 10 min 0,000 mm 557 W/m 11,4 C 24,9 C 16,1 km/h (3 Bft) 100 %
13.06.2014 16:40 25,4 C 24,9 C 25,4 C 41 % 1016,9 hPa 0,0 l/m 8,7 km/h (2 Bft) NW 318 10 min 0,000 mm 529 W/m 11,2 C 24,9 C 20,9 km/h (4 Bft) 100 %
13.06.2014 16:50 25,8 C 25,4 C 25,8 C 41 % 1016,7 hPa 0,0 l/m 9,7 km/h (2 Bft) N-NW 329 10 min 0,000 mm 541 W/m 11,5 C 25,1 C 22,5 km/h (4 Bft) 100 %
13.06.2014 17:00 25,6 C 25,6 C 25,8 C 41 % 1016,6 hPa 0,0 l/m 6,5 km/h (2 Bft) NW 325 10 min 0,356 mm 295 W/m 11,4 C 25,6 C 19,3 km/h (3 Bft) 99 %
13.06.2014 17:10 25,7 C 25,6 C 25,7 C 41 % 1016,5 hPa 0,0 l/m 5,4 km/h (1 Bft) N 355 10 min 0,000 mm 285 W/m 11,4 C 25,7 C 16,1 km/h (3 Bft) 100 %
13.06.2014 17:20 25,6 C 25,6 C 25,8 C 40 % 1016,5 hPa 0,0 l/m 4,2 km/h (1 Bft) NW 315 10 min 0,000 mm 550 W/m 11,0 C 25,6 C 16,1 km/h (3 Bft) 100 %
13.06.2014 17:30 25,3 C 25,3 C 25,6 C 39 % 1016,4 hPa 0,0 l/m 2,6 km/h (1 Bft) N-NW 344 10 min 0,000 mm 459 W/m 10,3 C 25,3 C 9,7 km/h (2 Bft) 100 %
13.06.2014 17:40 25,1 C 25,1 C 25,3 C 40 % 1016,3 hPa 0,0 l/m 1,8 km/h (1 Bft) NW 323 0 min 0,000 mm 149 W/m 10,5 C 25,1 C 17,7 km/h (3 Bft) 100 %
13.06.2014 17:50 24,8 C 24,8 C 25,1 C 42 % 1016,2 hPa 0,0 l/m 1,5 km/h (1 Bft) N-NW 329 10 min 0,000 mm 468 W/m 11,0 C 24,8 C 14,5 km/h (3 Bft) 99 %
13.06.2014 18:00 24,6 C 24,6 C 24,8 C 44 % 1016,1 hPa 0,0 l/m 1,7 km/h (1 Bft) N-NW 344 10 min 0,305 mm 446 W/m 11,5 C 24,6 C 14,5 km/h (3 Bft) 100 %
13.06.2014 18:10 24,4 C 24,4 C 24,6 C 43 % 1015,9 hPa 0,0 l/m 2,5 km/h (1 Bft) NW 325 0 min 0,000 mm 134 W/m 11,0 C 24,4 C 20,9 km/h (4 Bft) 100 %
13.06.2014 18:20 24,5 C 24,4 C 24,5 C 44 % 1015,8 hPa 0,0 l/m 5,9 km/h (2 Bft) NW 319 10 min 0,000 mm 378 W/m 11,4 C 24,5 C 17,7 km/h (3 Bft) 100 %
13.06.2014 18:30 24,3 C 24,3 C 24,5 C 44 % 1015,9 hPa 0,0 l/m 2,6 km/h (1 Bft) N-NW 338 10 min 0,000 mm 223 W/m 11,3 C 24,3 C 20,9 km/h (4 Bft) 100 %
13.06.2014 18:40 24,2 C 24,2 C 24,3 C 45 % 1016,0 hPa 0,0 l/m 1,5 km/h (1 Bft) N-NW 332 10 min 0,000 mm 251 W/m 11,5 C 24,2 C 9,7 km/h (2 Bft) 100 %
13.06.2014 18:50 23,7 C 23,7 C 24,2 C 45 % 1015,9 hPa 0,0 l/m 2,0 km/h (1 Bft) N-NW 337 10 min 0,000 mm 329 W/m 11,1 C 23,7 C 11,3 km/h (2 Bft) 100 %
13.06.2014 19:00 23,6 C 23,6 C 23,7 C 46 % 1016,0 hPa 0,0 l/m 0,8 km/h (0 Bft) NW 317 10 min 0,203 mm 339 W/m 11,3 C 23,6 C 9,7 km/h (2 Bft) 99 %
13.06.2014 19:10 23,7 C 23,6 C 23,7 C 47 % 1015,9 hPa 0,0 l/m 2,6 km/h (1 Bft) N-NW 335 10 min 0,000 mm 294 W/m 11,7 C 23,7 C 16,1 km/h (3 Bft) 100 %
13.06.2014 19:20 23,6 C 23,6 C 23,7 C 47 % 1016,0 hPa 0,0 l/m 4,1 km/h (1 Bft) N-NW 335 0 min 0,000 mm 86 W/m 11,6 C 23,6 C 20,9 km/h (4 Bft) 100 %
13.06.2014 19:30 23,6 C 23,5 C 23,6 C 46 % 1016,0 hPa 0,0 l/m 6,0 km/h (2 Bft) NW 318 10 min 0,000 mm 232 W/m 11,3 C 23,6 C 16,1 km/h (3 Bft) 100 %
13.06.2014 19:40 23,7 C 23,6 C 23,7 C 47 % 1016,1 hPa 0,0 l/m 5,9 km/h (2 Bft) N-NW 336 0 min 0,000 mm 63 W/m 11,7 C 23,7 C 17,7 km/h (3 Bft) 100 %
13.06.2014 19:50 23,1 C 23,1 C 23,7 C 47 % 1016,0 hPa 0,0 l/m 2,0 km/h (1 Bft) NW 323 0 min 0,000 mm 51 W/m 11,2 C 23,1 C 11,3 km/h (2 Bft) 100 %
13.06.2014 20:00 22,4 C 22,4 C 23,1 C 48 % 1016,0 hPa 0,0 l/m 2,5 km/h (1 Bft) NW 316 0 min 0,152 mm 51 W/m 10,8 C 22,4 C 14,5 km/h (3 Bft) 100 %
13.06.2014 20:10 22,0 C 22,0 C 22,4 C 49 % 1016,1 hPa 0,0 l/m 2,6 km/h (1 Bft) NW 326 0 min 0,000 mm 35 W/m 10,8 C 22,0 C 11,3 km/h (2 Bft) 100 %
13.06.2014 20:20 21,8 C 21,8 C 22,0 C 51 % 1016,2 hPa 0,0 l/m 2,9 km/h (1 Bft) N-NW 335 0 min 0,000 mm 35 W/m 11,2 C 21,8 C 17,7 km/h (3 Bft) 100 %
13.06.2014 20:30 21,4 C 21,4 C 21,8 C 52 % 1016,2 hPa 0,0 l/m 1,7 km/h (1 Bft) N-NW 339 0 min 0,000 mm 35 W/m 11,1 C 21,4 C 9,7 km/h (2 Bft) 100 %
13.06.2014 20:40 21,1 C 21,1 C 21,4 C 53 % 1016,3 hPa 0,0 l/m 1,4 km/h (1 Bft) N-NW 334 0 min 0,000 mm 23 W/m 11,1 C 21,1 C 8,0 km/h (2 Bft) 100 %
13.06.2014 20:50 20,6 C 20,6 C 21,1 C 56 % 1016,1 hPa 0,0 l/m 1,5 km/h (1 Bft) NW 311 0 min 0,000 mm 28 W/m 11,5 C 20,6 C 16,1 km/h (3 Bft) 100 %
13.06.2014 21:00 20,2 C 20,2 C 20,6 C 54 % 1016,2 hPa 0,0 l/m 1,9 km/h (1 Bft) NW 306 0 min 0,051 mm 12 W/m 10,6 C 20,2 C 9,7 km/h (2 Bft) 100 %
13.06.2014 21:10 20,1 C 20,0 C 20,2 C 54 % 1016,4 hPa 0,0 l/m 3,2 km/h (1 Bft) NW 315 0 min 0,000 mm 12 W/m 10,5 C 20,1 C 17,7 km/h (3 Bft) 97 %
13.06.2014 21:20 19,7 C 19,7 C 20,1 C 56 % 1016,5 hPa 0,0 l/m 0,0 km/h (0 Bft) NW 315 0 min 0,000 mm 9 W/m 10,7 C 19,7 C 8,0 km/h (2 Bft) 98 %
13.06.2014 21:30 19,2 C 19,2 C 19,7 C 58 % 1016,5 hPa 0,0 l/m 1,6 km/h (1 Bft) N-NW 337 0 min 0,000 mm 5 W/m 10,7 C 19,2 C 9,7 km/h (2 Bft) 97 %
13.06.2014 21:40 18,8 C 18,8 C 19,2 C 60 % 1016,8 hPa 0,0 l/m 0,0 km/h (0 Bft) N-NW 337 0 min 0,000 mm 0 W/m 10,9 C 18,8 C 6,4 km/h (2 Bft) 98 %
13.06.2014 21:50 18,4 C 18,4 C 18,8 C 62 % 1016,8 hPa 0,0 l/m 0,0 km/h (0 Bft) N-NO 22 0 min 0,000 mm 0 W/m 11,0 C 18,4 C 9,7 km/h (2 Bft) 97 %
13.06.2014 22:00 18,0 C 18,0 C 18,4 C 63 % 1016,8 hPa 0,0 l/m 0,0 km/h (0 Bft) NW 315 0 min 0,025 mm 0 W/m 10,8 C 18,0 C 9,7 km/h (2 Bft) 97 %
13.06.2014 22:10 17,6 C 17,6 C 18,0 C 64 % 1016,8 hPa 0,0 l/m 0,0 km/h (0 Bft) N-NW 337 0 min 0,000 mm 0 W/m 10,7 C 17,6 C 1,6 km/h (1 Bft) 98 %
13.06.2014 22:20 17,3 C 17,3 C 17,6 C 65 % 1016,9 hPa 0,0 l/m 0,0 km/h (0 Bft) N-NW 337 0 min 0,000 mm 0 W/m 10,7 C 17,3 C 6,4 km/h (2 Bft) 97 %
13.06.2014 22:30 17,1 C 17,1 C 17,3 C 66 % 1017,1 hPa 0,0 l/m 0,0 km/h (0 Bft) N 360 0 min 0,000 mm 0 W/m 10,7 C 17,1 C 3,2 km/h (1 Bft) 98 %
13.06.2014 22:40 16,8 C 16,8 C 17,1 C 67 % 1017,1 hPa 0,0 l/m 0,0 km/h (0 Bft) N-NO 22 0 min 0,000 mm 0 W/m 10,6 C 16,8 C 3,2 km/h (1 Bft) 98 %
13.06.2014 22:50 16,6 C 16,6 C 16,8 C 68 % 1017,1 hPa 0,0 l/m 0,0 km/h (0 Bft) N-NO 22 0 min 0,000 mm 0 W/m 10,7 C 16,6 C 1,6 km/h (1 Bft) 98 %
13.06.2014 23:00 16,2 C 16,2 C 16,6 C 69 % 1017,2 hPa 0,0 l/m 0,0 km/h (0 Bft) N-NO 22 0 min 0,025 mm 0 W/m 10,5 C 16,2 C 1,6 km/h (1 Bft) 99 %
13.06.2014 23:10 16,0 C 16,0 C 16,3 C 69 % 1017,2 hPa 0,0 l/m 0,0 km/h (0 Bft) N-NW 337 0 min 0,000 mm 0 W/m 10,3 C 16,0 C 6,4 km/h (2 Bft) 97 %
13.06.2014 23:20 15,8 C 15,8 C 16,0 C 70 % 1017,3 hPa 0,0 l/m 0,0 km/h (0 Bft) N-NW 337 0 min 0,000 mm 0 W/m 10,3 C 15,8 C 4,8 km/h (1 Bft) 97 %
13.06.2014 23:30 15,8 C 15,8 C 15,8 C 69 % 1017,5 hPa 0,0 l/m 0,0 km/h (0 Bft) NW 315 0 min 0,000 mm 0 W/m 10,1 C 15,8 C 1,6 km/h (1 Bft) 98 %
13.06.2014 23:40 15,7 C 15,7 C 15,8 C 69 % 1017,5 hPa 0,0 l/m 0,0 km/h (0 Bft) NW 315 0 min 0,000 mm 0 W/m 10,0 C 15,7 C 1,6 km/h (1 Bft) 97 %
13.06.2014 23:50 15,6 C 15,6 C 15,7 C 70 % 1017,4 hPa 0,0 l/m 0,0 km/h (0 Bft) N 0 0 min 0,000 mm 0 W/m 10,1 C 15,6 C 0,0 km/h (0 Bft) 98 %
_ Min-Zeit 06:10 06:10 05:50 15:20 18:20 - 00:00 - - - - - 05:40 05:40 00:00 07:20
Minimum _ 11,6 C 11,6 C 11,7 C 36 % 1015,8 hPa - 0,0 km/h (0 Bft) - - - - - 9,4 C 11,7 C 0,0 km/h (0 Bft) 86 %
_ Max-Zeit 15:50 15:50 15:50 06:30 00:00 00:00 15:30 - - 08:20 14:00 12:30 10:10 15:50 16:00 00:00
Maximum _ 26,9 C 26,8 C 26,9 C 87 % 1021,1 hPa 0,0 l/m 9,7 km/h
NW (2 Bft)
- - 10 min 0,609 mm 1032 W/m 14,0 C 26,8 C 25,7 km/h
NW (4 Bft)
100 %
Durchschnitt _ 19,5 C 19,4 C 19,6 C 63 % 1018,5 hPa #0,0 l/m 1,7 km/h (1 Bft) NW - #10:50 h #4,952 mm 461 W/m 11,6 C 19,5 C 8,0 km/h (2 Bft) 99 %
PRIVATE WETTERSTATION BILLIGHEIM-ALLFELD - www.neckar-odenwald-wetter.de - Holger Sonntag